createdAt,value
2018-12-20T00:01:52.165Z,27.43
2018-12-20T00:04:20.506Z,28.90
2018-12-20T00:06:48.964Z,26.67
2018-12-20T00:09:17.710Z,26.40
2018-12-20T00:11:46.045Z,25.27
2018-12-20T00:14:14.421Z,26.23
2018-12-20T00:16:42.883Z,25.10
2018-12-20T00:19:11.369Z,25.77
2018-12-20T00:21:39.949Z,26.97
2018-12-20T00:24:08.527Z,22.93
2018-12-20T00:26:36.980Z,26.37
2018-12-20T00:29:05.333Z,27.40
2018-12-20T00:31:33.768Z,24.53
2018-12-20T00:34:02.457Z,27.47
2018-12-20T00:36:30.939Z,25.10
2018-12-20T00:38:59.397Z,23.33
2018-12-20T00:41:27.744Z,25.27
2018-12-20T00:43:56.088Z,24.83
2018-12-20T00:46:24.444Z,22.57
2018-12-20T00:48:52.804Z,23.20
2018-12-20T00:51:21.271Z,22.20
2018-12-20T00:53:50.126Z,24.53
2018-12-20T00:56:18.517Z,22.67
2018-12-20T00:58:47.323Z,26.53
2018-12-20T01:01:16.104Z,23.90
2018-12-20T01:03:44.592Z,21.97
2018-12-20T01:06:13.037Z,23.10
2018-12-20T01:08:41.660Z,23.00
2018-12-20T01:11:10.205Z,23.57
2018-12-20T01:13:38.565Z,22.20
2018-12-20T01:16:06.987Z,23.30
2018-12-20T01:18:35.378Z,21.77
2018-12-20T01:21:03.777Z,20.80
2018-12-20T01:23:32.306Z,21.57
2018-12-20T01:26:00.717Z,20.87
2018-12-20T01:28:29.142Z,20.50
2018-12-20T01:30:57.591Z,22.17
2018-12-20T01:33:26.122Z,22.07
2018-12-20T01:35:54.535Z,22.90
2018-12-20T01:38:23.063Z,23.10
2018-12-20T01:40:51.566Z,22.63
2018-12-20T01:43:20.082Z,24.37
2018-12-20T01:45:48.422Z,23.87
2018-12-20T01:48:16.810Z,22.53
2018-12-20T01:50:45.299Z,22.73
2018-12-20T01:53:13.878Z,20.67
2018-12-20T01:55:42.592Z,23.10
2018-12-20T01:58:10.995Z,24.03
2018-12-20T02:00:39.427Z,22.20
2018-12-20T02:03:07.780Z,22.23
2018-12-20T02:05:36.124Z,24.30
2018-12-20T02:08:04.468Z,23.30
2018-12-20T02:10:32.898Z,21.97
2018-12-20T02:13:01.305Z,22.10
2018-12-20T02:15:30.652Z,21.97
2018-12-20T02:17:59.268Z,23.50
2018-12-20T02:20:28.103Z,23.43
2018-12-20T02:22:56.515Z,23.17
2018-12-20T02:25:25.029Z,25.70
2018-12-20T02:27:53.606Z,23.67
2018-12-20T02:30:22.217Z,23.97
2018-12-20T02:32:50.992Z,24.13
2018-12-20T02:35:19.557Z,23.80
2018-12-20T02:37:48.301Z,25.10
2018-12-20T02:40:16.660Z,24.43
2018-12-20T02:42:45.120Z,23.20
2018-12-20T02:45:13.881Z,23.70
2018-12-20T02:47:42.476Z,22.30
2018-12-20T02:50:11.420Z,24.77
2018-12-20T02:52:40.318Z,24.30
2018-12-20T02:55:08.862Z,23.47
2018-12-20T02:57:37.396Z,24.27
2018-12-20T03:00:07.271Z,23.60
2018-12-20T03:02:35.827Z,25.40
2018-12-20T03:05:04.897Z,25.50
2018-12-20T03:07:33.379Z,21.67
2018-12-20T03:10:01.791Z,26.17
2018-12-20T03:12:30.310Z,24.53
2018-12-20T03:14:58.731Z,24.33
2018-12-20T03:17:27.077Z,25.47
2018-12-20T03:19:55.415Z,23.57
2018-12-20T03:22:23.909Z,24.47
2018-12-20T03:24:52.579Z,25.67
2018-12-20T03:27:21.102Z,22.77
2018-12-20T03:29:49.625Z,24.10
2018-12-20T03:32:18.043Z,23.43
2018-12-20T03:34:46.420Z,23.20
2018-12-20T03:37:14.902Z,25.10
2018-12-20T03:39:43.321Z,24.00
2018-12-20T03:42:12.297Z,25.40
2018-12-20T03:44:40.788Z,23.80
2018-12-20T03:47:09.405Z,25.50
2018-12-20T03:49:38.043Z,24.23
2018-12-20T03:52:06.563Z,23.93
2018-12-20T03:54:35.358Z,24.50
2018-12-20T03:57:04.142Z,24.70
2018-12-20T03:59:32.586Z,24.37
2018-12-20T04:02:01.147Z,22.30
2018-12-20T04:04:29.519Z,24.13
2018-12-20T04:06:57.904Z,23.87
2018-12-20T04:09:26.588Z,22.50
2018-12-20T04:11:55.085Z,25.70
2018-12-20T04:14:23.502Z,25.53
2018-12-20T04:16:52.107Z,23.17
2018-12-20T04:19:20.705Z,21.27
2018-12-20T04:21:49.094Z,26.40
2018-12-20T04:24:17.797Z,24.13
2018-12-20T04:26:46.307Z,22.00
2018-12-20T04:29:14.734Z,24.23
2018-12-20T04:31:43.429Z,25.83
2018-12-20T04:34:12.132Z,23.33
2018-12-20T04:36:40.638Z,24.97
2018-12-20T04:39:09.033Z,22.90
2018-12-20T04:41:37.454Z,23.43
2018-12-20T04:44:06.088Z,26.27
2018-12-20T04:46:34.591Z,24.07
2018-12-20T04:49:03.139Z,23.70
2018-12-20T04:51:31.920Z,22.70
2018-12-20T04:54:00.537Z,24.83
2018-12-20T04:56:28.952Z,22.67
2018-12-20T04:58:57.359Z,23.33
2018-12-20T05:01:25.762Z,24.10
2018-12-20T05:03:54.345Z,22.87
2018-12-20T05:06:22.803Z,22.37
2018-12-20T05:08:51.376Z,22.57
2018-12-20T05:11:19.785Z,21.70
2018-12-20T05:13:48.199Z,24.00
2018-12-20T05:16:16.613Z,22.57
2018-12-20T05:18:45.029Z,23.43
2018-12-20T05:21:13.602Z,23.80
2018-12-20T05:23:42.443Z,23.67
2018-12-20T05:26:10.962Z,22.03
2018-12-20T05:28:39.369Z,20.57
2018-12-20T05:31:08.805Z,21.93
2018-12-20T05:33:37.418Z,24.03
2018-12-20T05:36:05.842Z,26.43
2018-12-20T05:38:34.314Z,23.87
2018-12-20T05:41:02.855Z,23.10
2018-12-20T05:43:31.234Z,27.00
2018-12-20T05:46:04.438Z,24.43
2018-12-20T05:48:30.332Z,24.67
2018-12-20T05:50:58.982Z,22.70
2018-12-20T05:53:27.585Z,23.43
2018-12-20T05:55:56.132Z,23.67
2018-12-20T05:58:24.740Z,22.67
2018-12-20T06:00:53.327Z,23.07
2018-12-20T06:03:21.717Z,27.20
2018-12-20T06:05:50.416Z,26.77
2018-12-20T06:08:19.283Z,29.40
2018-12-20T06:10:47.709Z,32.70
2018-12-20T06:13:16.342Z,33.47
2018-12-20T06:15:44.836Z,29.80
2018-12-20T06:18:13.527Z,31.07
2018-12-20T06:20:42.120Z,28.70
2018-12-20T06:23:10.669Z,29.83
2018-12-20T06:25:39.121Z,28.90
2018-12-20T06:28:07.463Z,27.90
2018-12-20T06:30:35.905Z,29.23
2018-12-20T06:33:04.301Z,26.80
2018-12-20T06:35:32.730Z,26.57
2018-12-20T06:38:01.086Z,25.53
2018-12-20T06:40:29.418Z,27.53
2018-12-20T06:42:57.758Z,28.53
2018-12-20T06:45:26.294Z,28.90
2018-12-20T06:47:54.634Z,27.97
2018-12-20T06:50:22.976Z,26.93
2018-12-20T06:52:51.341Z,27.80
2018-12-20T06:55:19.697Z,26.53
2018-12-20T06:57:48.040Z,26.30
2018-12-20T07:00:16.386Z,26.23
2018-12-20T07:02:44.730Z,28.27
2018-12-20T07:05:13.119Z,26.73
2018-12-20T07:07:41.610Z,28.37
2018-12-20T07:10:09.952Z,28.60
2018-12-20T07:12:38.481Z,26.83
2018-12-20T07:15:08.854Z,26.93
2018-12-20T07:17:37.327Z,28.60
2018-12-20T07:20:06.593Z,25.03
2018-12-20T07:22:34.973Z,25.17
2018-12-20T07:25:03.733Z,25.37
2018-12-20T07:27:32.091Z,27.87
2018-12-20T07:30:00.436Z,25.60
2018-12-20T07:32:28.967Z,26.30
2018-12-20T07:34:57.312Z,26.57
2018-12-20T07:37:25.652Z,26.87
2018-12-20T07:39:54.279Z,25.37
2018-12-20T07:42:22.707Z,25.30
2018-12-20T07:44:51.106Z,26.03
2018-12-20T07:47:19.492Z,25.63
2018-12-20T07:49:47.850Z,25.57
2018-12-20T07:52:16.207Z,26.00
2018-12-20T07:54:44.549Z,26.27
2018-12-20T07:57:12.879Z,26.93
2018-12-20T07:59:41.227Z,27.10
2018-12-20T08:02:09.877Z,25.67
2018-12-20T08:04:38.243Z,25.13
2018-12-20T08:07:06.579Z,25.73
2018-12-20T08:09:35.364Z,26.90
2018-12-20T08:12:03.724Z,26.10
2018-12-20T08:14:32.053Z,27.57
2018-12-20T08:17:00.402Z,25.03
2018-12-20T08:19:36.048Z,25.90
2018-12-20T08:21:59.193Z,26.77
2018-12-20T08:24:27.558Z,25.73
2018-12-20T08:26:55.968Z,29.00
2018-12-20T08:29:24.340Z,27.43
2018-12-20T08:31:52.689Z,28.27
2018-12-20T08:34:21.051Z,27.83
2018-12-20T08:36:49.491Z,27.83
2018-12-20T08:39:17.819Z,28.53
2018-12-20T08:41:46.170Z,28.03
2018-12-20T08:44:14.528Z,26.40
2018-12-20T08:46:43.886Z,28.93
2018-12-20T08:49:12.224Z,28.43
2018-12-20T08:51:48.763Z,27.53
2018-12-20T08:54:10.960Z,26.67
2018-12-20T08:56:39.358Z,24.97
2018-12-20T08:59:07.706Z,27.10
2018-12-20T09:01:36.059Z,28.97
2018-12-20T09:04:04.426Z,28.83
2018-12-20T09:06:32.792Z,30.13
2018-12-20T09:09:02.018Z,29.70
2018-12-20T09:11:30.385Z,25.33
2018-12-20T09:13:58.740Z,27.80
2018-12-20T09:16:27.099Z,29.87
2018-12-20T09:18:55.476Z,29.20
2018-12-20T09:21:23.863Z,27.97
2018-12-20T09:23:52.299Z,29.93
2018-12-20T09:26:20.820Z,27.20
2018-12-20T09:28:49.208Z,34.80
2018-12-20T09:31:17.694Z,31.53
2018-12-20T09:33:46.033Z,35.17
2018-12-20T09:36:14.584Z,35.00
2018-12-20T09:38:42.947Z,34.90
2018-12-20T09:41:11.297Z,35.70
2018-12-20T09:43:39.753Z,38.83
2018-12-20T09:46:08.101Z,36.60
2018-12-20T09:48:36.493Z,34.97
2018-12-20T09:51:04.855Z,34.23
2018-12-20T09:53:33.604Z,39.53
2018-12-20T09:56:01.955Z,39.30
2018-12-20T09:58:30.295Z,39.67
2018-12-20T10:00:58.631Z,36.63
2018-12-20T10:03:27.212Z,39.93
2018-12-20T10:05:55.570Z,36.40
2018-12-20T10:08:23.942Z,33.00
2018-12-20T10:10:52.353Z,35.77
2018-12-20T10:13:20.723Z,33.93
2018-12-20T10:15:49.077Z,32.10
2018-12-20T10:18:17.477Z,35.17
2018-12-20T10:20:45.951Z,34.87
2018-12-20T10:23:14.317Z,34.17
2018-12-20T10:25:42.661Z,33.43
2018-12-20T10:28:11.009Z,35.03
2018-12-20T10:30:39.350Z,32.50
2018-12-20T10:33:07.703Z,36.93
2018-12-20T10:35:36.340Z,36.97
2018-12-20T10:38:04.686Z,34.60
2018-12-20T10:40:33.065Z,35.90
2018-12-20T10:43:01.730Z,34.90
2018-12-20T10:45:30.184Z,35.10
2018-12-20T10:47:58.755Z,38.83
2018-12-20T10:50:27.323Z,34.87
2018-12-20T10:52:55.926Z,33.30
2018-12-20T10:55:24.404Z,38.10
2018-12-20T10:57:52.764Z,35.60
2018-12-20T11:00:21.143Z,37.30
2018-12-20T11:02:55.312Z,40.30
2018-12-20T11:05:25.685Z,34.03
2018-12-20T11:07:56.705Z,36.83
2018-12-20T11:10:27.688Z,36.50
2018-12-20T11:12:56.049Z,38.03
2018-12-20T11:15:31.755Z,37.73
2018-12-20T11:18:25.052Z,38.20
2018-12-20T11:23:48.253Z,35.47
2018-12-20T11:26:19.380Z,34.60
2018-12-20T11:28:48.178Z,36.00
2018-12-20T11:31:16.535Z,37.50
2018-12-20T11:33:44.931Z,35.40
2018-12-20T11:36:13.402Z,37.80
2018-12-20T11:38:41.759Z,34.57
2018-12-20T11:41:10.263Z,37.10
2018-12-20T11:43:38.737Z,37.60
2018-12-20T11:46:07.084Z,36.43
2018-12-20T11:48:35.532Z,38.60
2018-12-20T11:51:04.093Z,36.30
2018-12-20T11:53:32.444Z,35.70
2018-12-20T11:56:00.799Z,34.70
2018-12-20T11:58:29.151Z,36.07
2018-12-20T12:00:57.499Z,33.40
2018-12-20T12:03:25.864Z,35.60
2018-12-20T12:05:54.655Z,36.50
2018-12-20T12:08:23.009Z,33.53
2018-12-20T12:10:51.355Z,33.67
2018-12-20T12:13:19.702Z,33.03
2018-12-20T12:15:48.050Z,34.90
2018-12-20T12:18:16.558Z,36.47
2018-12-20T12:20:44.950Z,33.90
2018-12-20T12:23:13.321Z,36.33
2018-12-20T12:25:41.681Z,35.83
2018-12-20T12:28:10.270Z,33.30
2018-12-20T12:30:38.846Z,32.20
2018-12-20T12:33:07.197Z,37.07
2018-12-20T12:35:35.553Z,34.17
2018-12-20T12:38:04.087Z,35.17
2018-12-20T12:40:32.452Z,32.37
2018-12-20T12:43:03.466Z,31.87
2018-12-20T12:45:31.820Z,33.57
2018-12-20T12:48:03.505Z,31.47
2018-12-20T12:50:31.511Z,36.43
2018-12-20T12:52:59.879Z,34.30
2018-12-20T12:55:28.271Z,34.50
2018-12-20T12:58:04.414Z,37.40
2018-12-20T13:00:27.021Z,33.93
2018-12-20T13:02:58.510Z,33.73
2018-12-20T13:05:26.940Z,31.87
2018-12-20T13:07:55.311Z,33.47
2018-12-20T13:10:23.660Z,33.93
2018-12-20T13:12:52.025Z,33.80
2018-12-20T13:15:20.382Z,32.07
2018-12-20T13:17:49.209Z,35.13
2018-12-20T13:20:17.592Z,32.30
2018-12-20T13:22:46.249Z,33.00
2018-12-20T13:25:14.639Z,32.93
2018-12-20T13:27:43.231Z,37.10
2018-12-20T13:30:11.811Z,36.07
2018-12-20T13:32:40.161Z,34.87
2018-12-20T13:35:08.500Z,33.63
2018-12-20T13:37:36.851Z,34.20
2018-12-20T13:40:06.528Z,32.20
2018-12-20T13:42:34.886Z,33.80
2018-12-20T13:45:03.675Z,32.73
2018-12-20T13:47:32.092Z,34.10
2018-12-20T13:50:00.456Z,36.60
2018-12-20T13:52:28.940Z,34.13
2018-12-20T13:54:57.432Z,32.87
2018-12-20T13:57:25.799Z,34.80
2018-12-20T13:59:55.137Z,34.20
2018-12-20T14:02:23.597Z,37.20
2018-12-20T14:04:52.128Z,35.90
2018-12-20T14:07:23.001Z,36.37
2018-12-20T14:09:56.938Z,34.33
2018-12-20T14:12:25.398Z,36.30
2018-12-20T14:14:53.832Z,38.27
2018-12-20T14:17:22.192Z,33.47
2018-12-20T14:19:50.531Z,34.83
2018-12-20T14:22:18.874Z,35.00
2018-12-20T14:24:47.598Z,32.80
2018-12-20T14:27:16.054Z,35.80
2018-12-20T14:29:44.442Z,35.10
2018-12-20T14:32:12.944Z,31.60
2018-12-20T14:34:41.310Z,33.90
2018-12-20T14:37:09.673Z,34.77
2018-12-20T14:39:38.278Z,34.57
2018-12-20T14:42:06.628Z,35.70
2018-12-20T14:44:35.015Z,33.77
2018-12-20T14:47:03.718Z,33.80
2018-12-20T14:49:32.076Z,35.50
2018-12-20T14:52:00.640Z,36.40
2018-12-20T14:54:28.999Z,34.53
2018-12-20T14:56:57.376Z,35.90
2018-12-20T14:59:27.369Z,33.83
2018-12-20T15:01:57.672Z,32.00
2018-12-20T15:04:26.304Z,36.17
2018-12-20T15:06:54.670Z,31.17
2018-12-20T15:09:23.031Z,32.17
2018-12-20T15:11:59.078Z,33.93
2018-12-20T15:14:27.434Z,32.20
2018-12-20T15:16:55.838Z,31.27
2018-12-20T15:19:24.200Z,33.00
2018-12-20T15:21:52.572Z,32.90
2018-12-20T15:24:20.947Z,33.40
2018-12-20T15:26:49.309Z,34.93
2018-12-20T15:29:17.666Z,33.47
2018-12-20T15:31:53.194Z,33.83
2018-12-20T15:34:16.421Z,35.20
2018-12-20T15:36:44.776Z,33.33
2018-12-20T15:39:13.163Z,35.20
2018-12-20T15:41:41.558Z,33.33
2018-12-20T15:44:10.017Z,34.83
2018-12-20T15:46:38.377Z,35.40
2018-12-20T15:49:06.771Z,33.97
2018-12-20T15:51:35.127Z,34.33
2018-12-20T15:54:03.490Z,31.37
2018-12-20T15:56:31.906Z,32.83
2018-12-20T15:59:00.544Z,31.50
2018-12-20T16:01:28.884Z,33.80
2018-12-20T16:03:57.374Z,32.27
2018-12-20T16:06:25.753Z,33.27
2018-12-20T16:08:54.108Z,32.50
2018-12-20T16:11:22.581Z,32.87
2018-12-20T16:13:51.087Z,35.43
2018-12-20T16:16:19.439Z,32.37
2018-12-20T16:18:48.156Z,35.00
2018-12-20T16:21:16.527Z,33.60
2018-12-20T16:23:45.118Z,32.90
2018-12-20T16:26:13.461Z,33.37
2018-12-20T16:28:41.862Z,34.10
2018-12-20T16:31:10.222Z,29.87
2018-12-20T16:33:38.588Z,29.70
2018-12-20T16:36:07.014Z,35.50
2018-12-20T16:38:35.368Z,35.50
2018-12-20T16:41:03.868Z,34.13
2018-12-20T16:43:32.250Z,34.63
2018-12-20T16:46:00.682Z,31.40
2018-12-20T16:48:29.036Z,33.90
2018-12-20T16:50:57.483Z,37.60
2018-12-20T16:53:25.848Z,39.80
2018-12-20T16:55:54.229Z,35.93
2018-12-20T16:58:22.588Z,34.90
2018-12-20T17:00:50.953Z,34.93
2018-12-20T17:03:19.376Z,32.93
2018-12-20T17:05:47.960Z,30.73
2018-12-20T17:08:16.451Z,32.57
2018-12-20T17:10:44.838Z,34.73
2018-12-20T17:13:13.203Z,34.40
2018-12-20T17:15:41.552Z,34.93
2018-12-20T17:18:09.923Z,35.77
2018-12-20T17:20:38.331Z,35.43
2018-12-20T17:23:06.812Z,36.07
2018-12-20T17:25:35.168Z,34.80
2018-12-20T17:28:03.645Z,32.90
2018-12-20T17:30:31.988Z,38.70
2018-12-20T17:33:00.399Z,38.60
2018-12-20T17:35:28.757Z,36.43
2018-12-20T17:37:57.135Z,30.90
2018-12-20T17:40:25.496Z,33.97
2018-12-20T17:42:53.883Z,36.97
2018-12-20T17:45:22.319Z,32.30
2018-12-20T17:47:50.914Z,34.87
2018-12-20T17:50:19.293Z,32.17
2018-12-20T17:52:47.663Z,39.67
2018-12-20T17:55:16.150Z,37.57
2018-12-20T17:57:44.594Z,33.20
2018-12-20T18:00:13.819Z,34.27
2018-12-20T18:02:42.223Z,34.10
2018-12-20T18:05:10.787Z,35.90
2018-12-20T18:07:39.272Z,33.00
2018-12-20T18:10:09.184Z,34.40
2018-12-20T18:12:37.659Z,34.43
2018-12-20T18:15:08.368Z,34.37
2018-12-20T18:17:36.736Z,34.40
2018-12-20T18:20:06.334Z,35.27
2018-12-20T18:22:34.699Z,37.30
2018-12-20T18:25:03.175Z,35.27
2018-12-20T18:27:31.539Z,38.73
2018-12-20T18:30:00.526Z,35.87
2018-12-20T18:32:29.061Z,34.80
2018-12-20T18:34:57.551Z,34.10
2018-12-20T18:37:25.929Z,34.07
2018-12-20T18:39:54.292Z,33.67
2018-12-20T18:42:22.711Z,32.80
2018-12-20T18:44:51.088Z,32.20
2018-12-20T18:47:19.450Z,33.80
2018-12-20T18:49:48.116Z,36.17
2018-12-20T18:52:17.844Z,33.60
2018-12-20T18:54:46.500Z,33.70
2018-12-20T18:57:15.024Z,32.90
2018-12-20T18:59:43.608Z,33.07
2018-12-20T19:02:11.961Z,35.03
2018-12-20T19:04:41.282Z,36.03
2018-12-20T19:07:09.763Z,34.97
2018-12-20T19:09:38.539Z,34.30
2018-12-20T19:12:06.914Z,38.50
2018-12-20T19:14:35.326Z,35.30
2018-12-20T19:17:03.777Z,33.80
2018-12-20T19:19:32.253Z,35.40
2018-12-20T19:22:00.762Z,38.83
2018-12-20T19:24:29.142Z,35.03
2018-12-20T19:26:57.609Z,35.10
2018-12-20T19:29:25.983Z,36.97
2018-12-20T19:31:54.370Z,36.47
2018-12-20T19:34:22.845Z,36.93
2018-12-20T19:36:51.209Z,33.57
2018-12-20T19:39:19.569Z,38.60
2018-12-20T19:41:48.083Z,35.83
2018-12-20T19:44:16.454Z,35.70
2018-12-20T19:46:45.254Z,36.40
2018-12-20T19:49:14.259Z,36.80
2018-12-20T19:51:43.360Z,36.37
2018-12-20T19:54:11.839Z,34.93
2018-12-20T19:56:40.392Z,36.47
2018-12-20T19:59:09.500Z,35.00
2018-12-20T20:01:37.978Z,35.10
2018-12-20T20:04:06.324Z,35.00
2018-12-20T20:06:34.703Z,36.03
2018-12-20T20:09:04.425Z,37.40
2018-12-20T20:11:34.243Z,33.77
2018-12-20T20:14:02.842Z,36.90
2018-12-20T20:16:31.477Z,36.10
2018-12-20T20:19:00.174Z,36.27
2018-12-20T20:21:28.691Z,36.90
2018-12-20T20:23:57.088Z,37.33
2018-12-20T20:26:25.653Z,35.00
2018-12-20T20:28:54.024Z,34.97
2018-12-20T20:31:22.549Z,33.87
2018-12-20T20:33:50.926Z,36.27
2018-12-20T20:36:19.350Z,34.57
2018-12-20T20:38:47.709Z,36.23
2018-12-20T20:41:16.335Z,37.90
2018-12-20T20:43:44.826Z,34.03
2018-12-20T20:46:13.399Z,34.83
2018-12-20T20:48:42.902Z,34.70
2018-12-20T20:51:11.270Z,36.87
2018-12-20T20:53:39.863Z,37.07
2018-12-20T20:56:08.347Z,39.10
2018-12-20T20:58:40.933Z,34.17
2018-12-20T21:01:10.570Z,35.70
2018-12-20T21:03:39.220Z,36.77
2018-12-20T21:06:11.680Z,34.93
2018-12-20T21:08:40.052Z,34.80
2018-12-20T21:11:08.451Z,34.10
2018-12-20T21:13:36.988Z,36.43
2018-12-20T21:16:06.474Z,32.27
2018-12-20T21:18:34.839Z,36.17
2018-12-20T21:21:03.209Z,33.90
2018-12-20T21:23:31.894Z,33.83
2018-12-20T21:26:00.360Z,32.27
2018-12-20T21:28:29.554Z,32.80
2018-12-20T21:30:58.851Z,32.87
2018-12-20T21:33:27.223Z,32.80
2018-12-20T21:35:55.811Z,32.53
2018-12-20T21:38:24.295Z,33.20
2018-12-20T21:40:52.664Z,30.40
2018-12-20T21:43:21.168Z,30.30
2018-12-20T21:45:49.515Z,31.67
2018-12-20T21:48:17.910Z,30.97
2018-12-20T21:50:46.396Z,31.67
2018-12-20T21:53:14.752Z,32.20
2018-12-20T21:55:43.144Z,31.20
2018-12-20T21:58:11.632Z,30.50
2018-12-20T22:00:40.063Z,30.13
2018-12-20T22:03:08.428Z,31.33
2018-12-20T22:05:38.373Z,32.10
2018-12-20T22:08:06.707Z,31.23
2018-12-20T22:10:35.432Z,33.10
2018-12-20T22:13:03.848Z,33.30
2018-12-20T22:15:32.231Z,31.07
2018-12-20T22:18:00.745Z,33.97
2018-12-20T22:20:29.158Z,33.43
2018-12-20T22:22:57.561Z,34.60
2018-12-20T22:25:26.085Z,34.40
2018-12-20T22:27:54.553Z,35.00
2018-12-20T22:30:23.010Z,34.40
2018-12-20T22:32:51.593Z,30.90
2018-12-20T22:35:20.169Z,34.97
2018-12-20T22:37:48.542Z,34.40
2018-12-20T22:40:17.131Z,31.73
2018-12-20T22:42:45.480Z,34.27
2018-12-20T22:45:14.208Z,34.80
2018-12-20T22:47:42.579Z,36.10
2018-12-20T22:50:11.440Z,37.30
2018-12-20T22:52:39.788Z,36.60
2018-12-20T22:55:08.173Z,35.73
2018-12-20T22:57:36.615Z,32.50
2018-12-20T23:00:06.207Z,35.40
2018-12-20T23:02:34.686Z,34.97
2018-12-20T23:05:03.178Z,33.57
2018-12-20T23:07:31.544Z,33.67
2018-12-20T23:09:59.997Z,33.57
2018-12-20T23:12:28.609Z,34.57
2018-12-20T23:14:56.998Z,35.83
2018-12-20T23:17:25.476Z,32.20
2018-12-20T23:19:53.848Z,33.30
2018-12-20T23:22:22.332Z,32.43
2018-12-20T23:24:50.710Z,34.00
2018-12-20T23:27:19.076Z,37.80
2018-12-20T23:29:47.473Z,34.83
2018-12-20T23:32:15.862Z,36.83
2018-12-20T23:34:44.325Z,33.90
2018-12-20T23:37:12.689Z,32.77
2018-12-20T23:39:41.484Z,33.80
2018-12-20T23:42:09.916Z,35.70
2018-12-20T23:44:38.286Z,34.00
2018-12-20T23:47:07.134Z,33.50
2018-12-20T23:49:35.496Z,32.37
2018-12-20T23:52:04.064Z,32.27
2018-12-20T23:54:32.579Z,33.50
2018-12-20T23:57:00.949Z,32.30
2018-12-20T23:59:29.306Z,33.47
